Time;durP1;ratioP1;P1;durP2;ratioP2;P2;SDS_P1;SDS_P2;PMS_P1;PMS_P2;Temp;Humidity;BMP_temperature;BMP_pressure;BME280_temperature;BME280_humidity;BME280_pressure;Samples;Min_cycle;Max_cycle;Signal;HPM_P1;HPM_P2
2022/01/06 00:01:03;;;;;;;0.10;0.10;;;5.00;99.90;;;;;;5074583;28;20207;-86
2022/01/06 00:03:28;;;;;;;0.13;0.13;;;5.00;99.90;;;;;;5070190;28;20224;-86
2022/01/06 00:05:55;;;;;;;0.20;0.20;;;5.00;99.90;;;;;;5070915;28;20200;-86
2022/01/06 00:08:21;;;;;;;0.10;0.10;;;5.00;99.90;;;;;;5070676;28;20189;-86
2022/01/06 00:10:48;;;;;;;1.63;0.13;;;5.00;99.90;;;;;;5072042;28;20181;-86
2022/01/06 00:13:18;;;;;;;0.03;0.03;;;5.00;99.90;;;;;;5069695;28;20205;-85
2022/01/06 00:18:29;;;;;;;0.20;0.20;;;5.10;99.90;;;;;;5064916;28;20645;-84
2022/01/06 00:23:39;;;;;;;0.67;0.13;;;5.20;99.90;;;;;;5065243;28;20273;-85
2022/01/06 00:26:06;;;;;;;0.10;0.10;;;5.20;99.90;;;;;;5060526;28;20659;-85
2022/01/06 00:28:32;;;;;;;0.33;0.33;;;5.20;99.90;;;;;;5065197;28;20266;-85
2022/01/06 00:30:58;;;;;;;0.63;0.20;;;5.20;99.90;;;;;;5064916;28;20278;-86
2022/01/06 00:33:32;;;;;;;0.10;0.10;;;5.20;99.90;;;;;;5065058;28;20205;-85
2022/01/06 00:35:58;;;;;;;0.73;0.50;;;5.20;99.90;;;;;;5062194;28;20204;-84
2022/01/06 00:38:25;;;;;;;0.10;0.10;;;5.10;99.90;;;;;;5058651;28;20243;-84
2022/01/06 00:40:52;;;;;;;0.10;0.10;;;5.10;99.90;;;;;;5062550;28;20594;-84
2022/01/06 00:43:17;;;;;;;0.53;0.43;;;5.10;99.90;;;;;;5080178;28;20193;-86
2022/01/06 00:45:43;;;;;;;0.00;0.00;;;5.00;99.90;;;;;;5061330;28;20185;-85
2022/01/06 00:48:10;;;;;;;0.10;0.10;;;5.00;99.90;;;;;;5064104;28;20188;-86
2022/01/06 00:50:37;;;;;;;0.83;0.20;;;5.10;99.90;;;;;;5063489;28;20201;-85
2022/01/06 00:53:04;;;;;;;0.10;0.10;;;5.10;99.90;;;;;;5060539;28;20201;-85
2022/01/06 00:55:37;;;;;;;0.23;0.10;;;5.10;99.90;;;;;;5061550;28;20202;-85
2022/01/06 00:58:04;;;;;;;0.40;0.30;;;5.20;99.90;;;;;;5058578;28;20633;-85
2022/01/06 01:00:38;;;;;;;0.17;0.17;;;5.10;99.90;;;;;;5066939;28;20306;-85
2022/01/06 01:03:11;;;;;;;0.10;0.10;;;5.20;99.90;;;;;;5066843;28;20215;-85
2022/01/06 01:05:38;;;;;;;0.10;0.10;;;5.20;99.90;;;;;;5066698;28;20181;-85
2022/01/06 01:08:04;;;;;;;1.13;0.93;;;5.20;99.90;;;;;;5066209;28;20188;-85
2022/01/06 01:10:30;;;;;;;0.10;0.10;;;5.20;99.90;;;;;;5064971;28;20299;-85
2022/01/06 01:12:55;;;;;;;0.87;0.20;;;5.20;99.90;;;;;;5067785;28;20556;-85
2022/01/06 01:15:22;;;;;;;0.20;0.10;;;5.30;99.90;;;;;;5065373;28;20202;-85
2022/01/06 01:17:49;;;;;;;0.60;0.37;;;5.30;99.90;;;;;;5065040;28;20259;-85
2022/01/06 01:20:17;;;;;;;0.10;0.10;;;5.20;99.90;;;;;;5062492;28;20217;-84
2022/01/06 01:22:43;;;;;;;0.40;0.17;;;5.20;99.90;;;;;;5065636;28;20181;-84
2022/01/06 01:25:09;;;;;;;0.27;0.27;;;5.10;99.90;;;;;;5066160;28;20673;-85
2022/01/06 01:27:39;;;;;;;1.77;0.20;;;5.10;99.90;;;;;;5066087;28;20185;-84
2022/01/06 01:30:10;;;;;;;0.30;0.23;;;5.20;99.90;;;;;;5064028;28;20185;-85
2022/01/06 01:32:37;;;;;;;3.50;0.93;;;5.10;99.90;;;;;;5066572;28;20181;-85
2022/01/06 01:35:06;;;;;;;0.00;0.00;;;5.20;99.90;;;;;;5065979;28;20239;-85
2022/01/06 01:37:33;;;;;;;2.93;1.40;;;5.10;99.90;;;;;;5065675;28;20181;-85
2022/01/06 01:39:59;;;;;;;0.33;0.33;;;5.10;99.90;;;;;;5064020;28;20186;-85
2022/01/06 01:42:25;;;;;;;0.17;0.17;;;5.10;99.90;;;;;;5066214;28;20651;-84
2022/01/06 01:44:52;;;;;;;0.00;0.00;;;5.10;99.90;;;;;;5063665;28;20213;-85
2022/01/06 01:47:39;;;;;;;0.90;0.43;;;5.10;99.90;;;;;;5063923;28;21160;-84
2022/01/06 01:50:12;;;;;;;0.40;0.33;;;5.10;99.90;;;;;;5065851;28;20188;-84
2022/01/06 01:52:43;;;;;;;0.10;0.10;;;5.00;99.90;;;;;;5066925;28;20273;-85
2022/01/06 01:55:11;;;;;;;0.10;0.10;;;5.00;99.90;;;;;;5066369;28;20541;-85
2022/01/06 01:57:37;;;;;;;0.10;0.10;;;5.00;99.90;;;;;;5061293;28;20196;-85
2022/01/06 02:00:08;;;;;;;0.20;0.20;;;5.00;99.90;;;;;;5064521;28;20208;-86
2022/01/06 02:02:34;;;;;;;0.10;0.10;;;5.10;99.90;;;;;;5065414;28;20207;-85
2022/01/06 02:05:00;;;;;;;0.10;0.10;;;5.10;99.90;;;;;;5065087;28;20257;-85
2022/01/06 02:07:26;;;;;;;0.10;0.10;;;5.10;99.90;;;;;;5065733;28;20191;-85
2022/01/06 02:09:51;;;;;;;0.10;0.10;;;5.10;99.90;;;;;;5065705;28;20182;-85
2022/01/06 02:12:31;;;;;;;0.10;0.10;;;5.10;99.90;;;;;;5064993;28;20233;-85
2022/01/06 02:14:57;;;;;;;0.20;0.20;;;5.10;99.90;;;;;;5063669;28;20204;-85
2022/01/06 02:17:23;;;;;;;0.00;0.00;;;5.10;99.90;;;;;;5064631;28;20187;-85
2022/01/06 02:19:55;;;;;;;0.10;0.10;;;5.00;99.90;;;;;;5061749;28;20230;-85
2022/01/06 02:22:21;;;;;;;0.00;0.00;;;5.00;99.90;;;;;;5064696;28;20271;-84
2022/01/06 02:24:47;;;;;;;0.30;0.30;;;4.90;99.90;;;;;;5066518;28;20320;-85
2022/01/06 02:27:13;;;;;;;0.00;0.00;;;4.90;99.90;;;;;;5060365;28;20185;-85
2022/01/06 02:29:39;;;;;;;0.10;0.10;;;4.90;99.90;;;;;;5065980;28;20655;-85
2022/01/06 02:32:09;;;;;;;0.20;0.20;;;4.90;99.90;;;;;;5066197;28;20185;-85
2022/01/06 02:34:35;;;;;;;0.40;0.10;;;4.80;99.90;;;;;;5065145;28;20257;-85
2022/01/06 02:37:02;;;;;;;0.07;0.07;;;4.80;99.90;;;;;;5059374;28;20173;-85
2022/01/06 02:39:27;;;;;;;0.10;0.10;;;4.80;99.90;;;;;;5066580;28;20180;-85
2022/01/06 02:41:53;;;;;;;0.10;0.10;;;4.70;99.90;;;;;;5064277;28;20192;-85
2022/01/06 02:44:21;;;;;;;0.10;0.10;;;4.70;99.90;;;;;;5065628;28;20240;-85
2022/01/06 02:46:47;;;;;;;0.10;0.10;;;4.70;99.90;;;;;;5058982;28;20188;-85
2022/01/06 02:49:12;;;;;;;0.20;0.17;;;4.60;99.90;;;;;;5063672;28;20181;-85
2022/01/06 02:51:40;;;;;;;0.20;0.20;;;4.50;99.90;;;;;;5064614;28;20180;-85
2022/01/06 02:54:05;;;;;;;0.03;0.03;;;4.50;99.90;;;;;;5061525;28;20215;-85
2022/01/06 02:56:32;;;;;;;0.10;0.10;;;4.40;99.90;;;;;;5064023;28;20598;-86
2022/01/06 02:58:58;;;;;;;0.10;0.10;;;4.40;99.90;;;;;;5059810;28;20278;-85
2022/01/06 03:01:23;;;;;;;0.30;0.30;;;4.40;99.90;;;;;;5061830;28;20266;-84
2022/01/06 03:03:49;;;;;;;0.00;0.00;;;4.20;99.90;;;;;;5065048;28;20216;-86
2022/01/06 03:06:14;;;;;;;0.10;0.10;;;4.20;99.90;;;;;;5061102;28;20199;-85
2022/01/06 03:08:40;;;;;;;0.10;0.10;;;4.20;99.90;;;;;;5064641;28;20295;-85
2022/01/06 03:11:07;;;;;;;0.03;0.03;;;4.20;99.90;;;;;;5064121;28;20202;-84
2022/01/06 03:13:32;;;;;;;1.30;0.23;;;4.10;99.90;;;;;;5064477;28;20329;-85
2022/01/06 03:15:59;;;;;;;0.10;0.10;;;4.10;99.90;;;;;;5065286;28;20310;-85
2022/01/06 03:18:24;;;;;;;0.67;0.67;;;4.10;99.90;;;;;;5063553;28;20206;-85
2022/01/06 03:20:50;;;;;;;1.20;0.40;;;4.20;99.90;;;;;;5065936;28;20181;-85
2022/01/06 03:23:15;;;;;;;0.93;0.30;;;4.20;99.90;;;;;;5059976;28;20208;-85
2022/01/06 03:25:41;;;;;;;0.10;0.10;;;4.10;99.90;;;;;;5059635;28;20189;-85
2022/01/06 03:28:06;;;;;;;0.00;0.00;;;4.10;99.90;;;;;;5064667;28;20189;-85
2022/01/06 03:30:32;;;;;;;0.20;0.20;;;4.10;99.90;;;;;;5062798;28;20188;-85
2022/01/06 03:32:58;;;;;;;0.10;0.10;;;4.10;99.90;;;;;;5065073;28;20262;-86
2022/01/06 03:35:24;;;;;;;2.33;0.40;;;4.10;99.90;;;;;;5063007;28;20215;-85
2022/01/06 03:37:51;;;;;;;0.00;0.00;;;4.10;99.90;;;;;;5060503;28;20185;-85
2022/01/06 03:40:16;;;;;;;1.00;0.30;;;4.10;99.90;;;;;;5064560;28;20196;-85
2022/01/06 03:42:42;;;;;;;0.10;0.10;;;4.10;99.90;;;;;;5064607;28;20191;-85
2022/01/06 03:45:10;;;;;;;0.30;0.30;;;4.10;99.90;;;;;;5061583;28;20210;-85
2022/01/06 03:47:35;;;;;;;0.73;0.30;;;4.10;99.90;;;;;;5062694;28;20191;-85
2022/01/06 03:50:02;;;;;;;0.30;0.30;;;4.10;99.90;;;;;;5060774;28;20772;-85
2022/01/06 03:52:27;;;;;;;0.17;0.17;;;4.10;99.90;;;;;;5063199;28;20330;-85
2022/01/06 03:54:53;;;;;;;0.10;0.10;;;4.20;99.90;;;;;;5064049;28;20306;-85
2022/01/06 03:57:18;;;;;;;0.20;0.20;;;4.20;99.90;;;;;;5061382;28;20302;-85
2022/01/06 03:59:44;;;;;;;0.10;0.10;;;4.30;99.90;;;;;;5063808;28;20287;-84
2022/01/06 04:02:09;;;;;;;0.10;0.10;;;4.40;99.90;;;;;;5060263;28;20180;-85
2022/01/06 04:04:35;;;;;;;0.00;0.00;;;4.50;99.90;;;;;;5063856;28;20261;-85
2022/01/06 04:07:00;;;;;;;0.20;0.20;;;4.60;99.90;;;;;;5065132;28;20184;-85
2022/01/06 04:09:26;;;;;;;0.50;0.50;;;4.60;99.90;;;;;;5063435;28;20189;-85
2022/01/06 04:11:51;;;;;;;0.43;0.43;;;4.70;99.90;;;;;;5062670;28;20200;-84
2022/01/06 04:14:17;;;;;;;0.10;0.10;;;4.70;99.90;;;;;;5062503;28;20949;-86
2022/01/06 04:16:42;;;;;;;0.10;0.10;;;4.70;99.90;;;;;;5062786;28;20177;-85
2022/01/06 04:19:09;;;;;;;0.13;0.13;;;4.60;99.90;;;;;;5060924;28;20234;-85
2022/01/06 04:21:35;;;;;;;0.30;0.23;;;4.60;99.90;;;;;;5065555;28;20262;-85
2022/01/06 04:24:00;;;;;;;0.10;0.10;;;4.40;99.90;;;;;;5063347;28;20505;-84
2022/01/06 04:26:26;;;;;;;0.20;0.20;;;4.40;99.90;;;;;;5065832;28;20210;-85
2022/01/06 04:28:52;;;;;;;0.17;0.17;;;4.40;99.90;;;;;;5063706;28;20245;-85
2022/01/06 04:31:17;;;;;;;0.10;0.10;;;4.40;99.90;;;;;;5065250;28;20499;-85
2022/01/06 04:33:43;;;;;;;0.00;0.00;;;4.30;99.90;;;;;;5064586;28;20208;-85
2022/01/06 04:36:09;;;;;;;1.13;0.17;;;4.30;99.90;;;;;;5067941;28;20196;-85
2022/01/06 04:38:36;;;;;;;0.30;0.27;;;4.30;99.90;;;;;;5068507;28;20191;-85
2022/01/06 04:41:03;;;;;;;0.20;0.20;;;4.30;99.90;;;;;;5064140;28;20180;-84
2022/01/06 04:43:29;;;;;;;0.07;0.07;;;4.30;99.90;;;;;;5068601;28;20219;-85
2022/01/06 04:45:54;;;;;;;0.10;0.10;;;4.30;99.90;;;;;;5068071;28;20203;-85
2022/01/06 04:48:20;;;;;;;0.13;0.13;;;4.20;99.90;;;;;;5063486;28;20210;-85
2022/01/06 04:50:45;;;;;;;0.20;0.20;;;4.20;99.90;;;;;;5068431;28;20196;-85
2022/01/06 04:53:11;;;;;;;0.67;0.57;;;4.30;99.90;;;;;;5065508;28;20279;-84
2022/01/06 04:55:36;;;;;;;0.13;0.13;;;4.30;99.90;;;;;;5064309;28;20609;-85
2022/01/06 04:58:02;;;;;;;0.10;0.10;;;4.20;99.90;;;;;;5065532;28;20205;-84
2022/01/06 05:00:27;;;;;;;0.10;0.10;;;4.20;99.90;;;;;;5062488;28;20173;-85
2022/01/06 05:02:53;;;;;;;0.10;0.10;;;4.20;99.90;;;;;;5063156;28;21109;-84
2022/01/06 05:05:19;;;;;;;0.13;0.13;;;4.10;99.90;;;;;;5066833;28;20223;-85
2022/01/06 05:07:44;;;;;;;0.23;0.23;;;4.10;99.90;;;;;;5067080;28;20183;-85
2022/01/06 05:10:10;;;;;;;0.00;0.00;;;4.10;99.90;;;;;;5063369;28;20204;-85
2022/01/06 05:12:41;;;;;;;0.10;0.10;;;4.00;99.90;;;;;;5067970;28;20198;-85
2022/01/06 05:15:08;;;;;;;0.00;0.00;;;4.00;99.90;;;;;;5066460;28;20238;-85
2022/01/06 05:17:33;;;;;;;0.23;0.10;;;4.00;99.90;;;;;;5063556;28;20182;-85
2022/01/06 05:19:59;;;;;;;0.10;0.10;;;4.00;99.90;;;;;;5066813;28;20187;-85
2022/01/06 05:22:25;;;;;;;10.23;0.50;;;3.90;99.90;;;;;;5066355;28;20188;-85
2022/01/06 05:24:53;;;;;;;1.93;0.33;;;3.90;99.90;;;;;;5062422;28;20220;-85
2022/01/06 05:27:18;;;;;;;0.30;0.30;;;3.90;99.90;;;;;;5063435;28;20273;-85
2022/01/06 05:29:44;;;;;;;0.20;0.20;;;3.90;99.90;;;;;;5064586;28;20310;-85
2022/01/06 05:32:09;;;;;;;0.40;0.40;;;3.90;99.90;;;;;;5064432;28;20292;-85
2022/01/06 05:34:35;;;;;;;0.20;0.20;;;3.80;99.90;;;;;;5066201;28;20224;-85
2022/01/06 05:37:00;;;;;;;0.70;0.70;;;3.80;99.90;;;;;;5065436;28;21173;-85
2022/01/06 05:39:26;;;;;;;1.17;0.63;;;3.80;99.90;;;;;;5066277;28;20192;-85
2022/01/06 05:41:51;;;;;;;0.30;0.30;;;3.80;99.90;;;;;;5067240;28;20252;-85
2022/01/06 05:44:17;;;;;;;0.10;0.10;;;3.70;99.90;;;;;;5065218;28;20210;-85
2022/01/06 05:46:42;;;;;;;1.10;0.40;;;3.70;99.90;;;;;;5061718;28;20179;-85
2022/01/06 05:49:08;;;;;;;0.10;0.10;;;3.70;99.90;;;;;;5063958;28;20184;-85
2022/01/06 05:51:33;;;;;;;0.77;0.40;;;3.70;99.90;;;;;;5062820;28;20187;-85
2022/01/06 05:54:00;;;;;;;0.10;0.10;;;3.70;99.90;;;;;;5064361;28;20200;-85
2022/01/06 05:56:27;;;;;;;0.10;0.10;;;3.70;99.90;;;;;;5066324;28;20194;-85
2022/01/06 05:58:53;;;;;;;0.23;0.23;;;3.70;99.90;;;;;;5062258;28;20238;-85
2022/01/06 06:01:18;;;;;;;0.20;0.20;;;3.60;99.90;;;;;;5064726;28;20213;-85
2022/01/06 06:03:44;;;;;;;0.20;0.20;;;3.60;99.90;;;;;;5064721;28;20202;-86
2022/01/06 06:06:09;;;;;;;0.10;0.10;;;3.70;99.90;;;;;;5059957;28;20195;-85
2022/01/06 06:08:35;;;;;;;0.10;0.10;;;3.70;99.90;;;;;;5064885;28;20212;-85
2022/01/06 06:11:00;;;;;;;0.00;0.00;;;3.70;99.90;;;;;;5066933;28;20202;-85
2022/01/06 06:13:26;;;;;;;0.40;0.40;;;3.90;99.90;;;;;;5063863;28;20211;-84
2022/01/06 06:15:51;;;;;;;0.13;0.13;;;3.90;99.90;;;;;;5062996;28;20923;-85
2022/01/06 06:18:17;;;;;;;0.30;0.30;;;4.00;99.90;;;;;;5064397;28;20181;-85
2022/01/06 06:20:43;;;;;;;0.33;0.33;;;4.00;99.90;;;;;;5066895;28;20969;-85
2022/01/06 06:23:08;;;;;;;0.10;0.10;;;4.00;99.90;;;;;;5060679;28;20174;-85
2022/01/06 06:25:34;;;;;;;0.20;0.20;;;4.00;99.90;;;;;;5065363;28;20533;-85
2022/01/06 06:28:00;;;;;;;0.03;0.03;;;3.90;99.90;;;;;;5065681;28;20197;-84
2022/01/06 06:30:26;;;;;;;0.10;0.10;;;3.90;99.90;;;;;;5060915;28;20606;-85
2022/01/06 06:32:52;;;;;;;1.47;0.47;;;3.90;99.90;;;;;;5066798;28;20196;-86
2022/01/06 06:35:17;;;;;;;0.00;0.00;;;3.90;99.90;;;;;;5063611;28;20208;-85
2022/01/06 06:37:43;;;;;;;0.03;0.03;;;4.00;99.90;;;;;;5069433;28;20263;-85
2022/01/06 06:40:09;;;;;;;0.20;0.20;;;4.10;99.90;;;;;;5074516;28;20564;-85
2022/01/06 06:42:35;;;;;;;1.90;0.40;;;4.00;99.90;;;;;;5075162;28;20225;-84
2022/01/06 06:45:01;;;;;;;0.30;0.10;;;4.00;99.90;;;;;;5069183;28;20301;-85
2022/01/06 06:47:26;;;;;;;0.67;0.57;;;4.00;99.90;;;;;;5066300;28;20195;-85
2022/01/06 06:49:55;;;;;;;2.80;0.20;;;4.00;99.90;;;;;;5062905;28;20237;-85
2022/01/06 06:52:21;;;;;;;0.53;0.53;;;4.00;99.90;;;;;;5062209;28;20215;-85
2022/01/06 06:54:47;;;;;;;0.60;0.60;;;4.00;99.90;;;;;;5065801;28;20208;-85
2022/01/06 06:57:13;;;;;;;0.10;0.10;;;3.90;99.90;;;;;;5065306;28;20555;-85
2022/01/06 06:59:39;;;;;;;0.10;0.10;;;4.00;99.90;;;;;;5064318;28;20200;-85
2022/01/06 07:02:05;;;;;;;0.17;0.17;;;4.00;99.90;;;;;;5065289;28;20260;-85
2022/01/06 07:04:30;;;;;;;0.40;0.40;;;4.20;99.90;;;;;;5062631;28;20236;-84
2022/01/06 07:06:56;;;;;;;0.10;0.10;;;4.20;99.90;;;;;;5065466;28;20192;-85
2022/01/06 07:09:21;;;;;;;0.10;0.10;;;4.20;99.90;;;;;;5063313;28;20272;-85
2022/01/06 07:11:47;;;;;;;0.10;0.10;;;4.20;99.90;;;;;;5064989;28;20755;-84
2022/01/06 07:14:13;;;;;;;0.10;0.10;;;4.10;99.90;;;;;;5061495;28;20684;-85
2022/01/06 07:16:38;;;;;;;0.03;0.03;;;4.00;99.90;;;;;;5062565;28;20194;-84
2022/01/06 07:19:03;;;;;;;0.10;0.10;;;4.00;99.90;;;;;;5064562;28;20945;-84
2022/01/06 07:21:29;;;;;;;0.10;0.10;;;3.90;99.90;;;;;;5064807;28;20199;-85
2022/01/06 07:23:55;;;;;;;2.23;0.70;;;3.90;99.90;;;;;;5059880;28;20207;-84
2022/01/06 07:26:20;;;;;;;0.23;0.17;;;3.90;99.90;;;;;;5065846;28;20191;-84
2022/01/06 07:28:46;;;;;;;0.10;0.10;;;3.90;99.90;;;;;;5063818;28;20188;-83
2022/01/06 07:31:11;;;;;;;0.00;0.00;;;3.80;99.90;;;;;;5060535;28;20180;-84
2022/01/06 07:33:37;;;;;;;0.10;0.10;;;3.80;99.90;;;;;;5065722;28;20215;-83
2022/01/06 07:36:03;;;;;;;0.20;0.20;;;3.80;99.90;;;;;;5061879;28;20566;-84
2022/01/06 07:38:28;;;;;;;0.37;0.37;;;3.80;99.90;;;;;;5065669;28;20207;-84
2022/01/06 07:40:55;;;;;;;0.10;0.10;;;3.70;99.90;;;;;;5065970;28;20565;-83
2022/01/06 07:43:21;;;;;;;1.90;1.43;;;3.70;99.90;;;;;;5065531;28;20212;-84
2022/01/06 07:45:48;;;;;;;0.10;0.10;;;3.60;99.90;;;;;;5059839;28;20191;-84
2022/01/06 07:48:18;;;;;;;0.10;0.10;;;3.70;99.90;;;;;;5058759;28;20274;-84
2022/01/06 07:50:46;;;;;;;0.00;0.00;;;3.80;99.90;;;;;;5061500;28;20187;-84
2022/01/06 07:53:12;;;;;;;0.87;0.80;;;3.90;99.90;;;;;;5058477;28;20211;-82
2022/01/06 07:55:38;;;;;;;1.50;0.73;;;3.90;99.90;;;;;;5067591;28;20624;-82
2022/01/06 07:58:04;;;;;;;0.10;0.10;;;3.90;99.90;;;;;;5060789;28;20915;-82
2022/01/06 08:00:30;;;;;;;0.10;0.10;;;4.00;99.90;;;;;;5064714;28;20180;-82
2022/01/06 08:02:56;;;;;;;0.30;0.30;;;4.10;99.90;;;;;;5067422;28;20179;-82
2022/01/06 08:05:24;;;;;;;0.20;0.20;;;4.20;99.90;;;;;;5065751;28;20608;-82
2022/01/06 08:07:50;;;;;;;0.00;0.00;;;4.30;99.90;;;;;;5059226;28;20266;-82
2022/01/06 08:10:16;;;;;;;0.13;0.13;;;4.40;99.90;;;;;;5069180;28;20278;-82
2022/01/06 08:12:42;;;;;;;0.10;0.10;;;4.50;99.90;;;;;;5063467;28;20195;-82
2022/01/06 08:15:08;;;;;;;0.10;0.10;;;4.60;99.90;;;;;;5067250;28;20212;-82
2022/01/06 08:17:36;;;;;;;0.73;0.73;;;4.60;99.90;;;;;;5066946;28;20187;-82
2022/01/06 08:20:03;;;;;;;1.60;0.20;;;4.60;99.90;;;;;;5072102;28;20172;-83
2022/01/06 08:22:29;;;;;;;0.53;0.53;;;4.70;99.90;;;;;;5071123;28;20291;-82
2022/01/06 08:24:55;;;;;;;0.27;0.27;;;4.90;99.90;;;;;;5070958;28;20633;-82
2022/01/06 08:27:23;;;;;;;0.20;0.20;;;5.00;99.90;;;;;;5071873;28;20191;-82
2022/01/06 08:29:50;;;;;;;0.53;0.53;;;5.10;99.90;;;;;;5071060;28;20227;-82
2022/01/06 08:32:16;;;;;;;6.03;0.20;;;5.10;99.90;;;;;;5066029;28;20320;-82
2022/01/06 08:34:41;;;;;;;0.30;0.30;;;5.10;99.90;;;;;;5072010;28;20650;-82
2022/01/06 08:37:07;;;;;;;0.23;0.10;;;5.20;99.90;;;;;;5071382;28;20180;-82
2022/01/06 08:39:32;;;;;;;0.40;0.40;;;5.20;99.90;;;;;;5069835;28;20182;-82
2022/01/06 08:41:58;;;;;;;2.10;0.47;;;5.20;99.90;;;;;;5067072;28;20268;-82
2022/01/06 08:44:23;;;;;;;0.40;0.40;;;5.30;99.90;;;;;;5072403;28;20205;-84
2022/01/06 08:46:49;;;;;;;0.10;0.10;;;5.30;99.90;;;;;;5058282;28;20677;-85
2022/01/06 08:49:15;;;;;;;0.77;0.17;;;5.30;99.90;;;;;;5067408;28;20366;-85
2022/01/06 08:51:41;;;;;;;6.40;0.50;;;5.10;99.90;;;;;;5066066;28;20173;-85
2022/01/06 08:54:07;;;;;;;0.20;0.20;;;5.10;99.90;;;;;;5061263;28;20200;-86
2022/01/06 08:56:37;;;;;;;0.27;0.27;;;5.00;99.90;;;;;;5064704;28;20697;-84
2022/01/06 08:59:04;;;;;;;0.77;0.50;;;5.20;99.90;;;;;;5065938;28;20201;-84
2022/01/06 09:01:30;;;;;;;0.10;0.10;;;5.20;99.90;;;;;;5067782;28;20671;-84
2022/01/06 09:03:55;;;;;;;0.67;0.67;;;5.50;99.90;;;;;;5062025;28;20198;-85
2022/01/06 09:06:21;;;;;;;0.20;0.20;;;5.80;99.90;;;;;;5059460;28;20193;-85
2022/01/06 09:08:48;;;;;;;0.60;0.60;;;6.10;99.90;;;;;;5063932;28;20653;-85
2022/01/06 09:11:14;;;;;;;0.10;0.10;;;6.40;99.90;;;;;;5063379;28;20185;-85
2022/01/06 09:13:41;;;;;;;0.17;0.17;;;6.70;99.90;;;;;;5061053;28;20203;-85
2022/01/06 09:16:08;;;;;;;0.10;0.10;;;6.90;99.90;;;;;;5064893;28;20205;-84
2022/01/06 09:18:38;;;;;;;0.23;0.17;;;7.00;99.90;;;;;;5060286;28;20664;-84
2022/01/06 09:21:08;;;;;;;0.13;0.13;;;7.00;99.90;;;;;;5065834;28;20199;-84
2022/01/06 09:23:34;;;;;;;0.10;0.10;;;7.00;99.90;;;;;;5065391;28;20243;-83
2022/01/06 09:25:59;;;;;;;0.20;0.10;;;7.10;99.90;;;;;;5065926;28;20208;-82
2022/01/06 09:28:26;;;;;;;0.40;0.40;;;7.20;99.90;;;;;;5066114;28;20223;-82
2022/01/06 09:30:51;;;;;;;0.10;0.10;;;7.30;99.90;;;;;;5063442;28;20189;-82
2022/01/06 09:33:20;;;;;;;0.10;0.10;;;7.30;99.90;;;;;;5061376;28;20208;-82
2022/01/06 09:35:47;;;;;;;0.10;0.10;;;7.40;99.90;;;;;;5067584;28;20208;-82
2022/01/06 09:38:13;;;;;;;1.57;0.27;;;7.50;99.90;;;;;;5064325;28;20181;-82
2022/01/06 09:40:41;;;;;;;0.37;0.37;;;7.70;99.90;;;;;;5068911;28;20188;-82
2022/01/06 09:43:07;;;;;;;0.13;0.13;;;7.70;99.90;;;;;;5070508;28;20173;-83
2022/01/06 09:45:35;;;;;;;0.40;0.40;;;7.80;99.90;;;;;;5067924;28;20215;-82
2022/01/06 09:48:01;;;;;;;0.20;0.20;;;7.80;99.90;;;;;;5068112;28;20177;-83
2022/01/06 09:50:27;;;;;;;0.13;0.13;;;7.80;99.90;;;;;;5062767;28;20683;-82
2022/01/06 09:52:53;;;;;;;0.10;0.10;;;7.90;99.90;;;;;;5067102;28;20187;-82
2022/01/06 09:55:19;;;;;;;0.20;0.20;;;8.00;99.90;;;;;;5066733;28;20351;-82
2022/01/06 09:57:59;;;;;;;0.10;0.10;;;7.90;99.90;;;;;;5067196;28;20199;-82
2022/01/06 10:00:31;;;;;;;0.20;0.20;;;7.80;99.90;;;;;;5066800;28;20190;-82
2022/01/06 10:02:59;;;;;;;0.10;0.10;;;7.80;99.90;;;;;;5067287;28;20812;-82
2022/01/06 10:05:25;;;;;;;0.33;0.33;;;7.50;99.90;;;;;;5065702;28;20181;-82
2022/01/06 10:07:54;;;;;;;0.10;0.10;;;7.50;99.90;;;;;;5067381;28;20240;-82
2022/01/06 10:10:27;;;;;;;0.10;0.10;;;7.80;99.90;;;;;;5055267;28;20190;-82
2022/01/06 10:12:58;;;;;;;0.63;0.40;;;7.90;99.90;;;;;;5064065;28;20194;-82
2022/01/06 10:15:25;;;;;;;2.87;0.30;;;7.80;99.90;;;;;;5067631;28;20563;-82
2022/01/06 10:17:51;;;;;;;0.10;0.10;;;7.50;99.90;;;;;;5066825;28;20185;-82
2022/01/06 10:20:23;;;;;;;0.10;0.10;;;7.60;99.90;;;;;;5061294;28;20250;-82
2022/01/06 10:22:52;;;;;;;3.00;0.97;;;7.50;99.90;;;;;;5067217;28;20195;-82
2022/01/06 10:25:19;;;;;;;0.10;0.10;;;7.60;99.90;;;;;;5063791;28;20209;-82
2022/01/06 10:27:46;;;;;;;0.10;0.10;;;7.60;99.90;;;;;;5063328;28;20182;-82
2022/01/06 10:30:13;;;;;;;0.20;0.20;;;7.70;99.90;;;;;;5059780;28;20182;-82
2022/01/06 10:32:39;;;;;;;0.20;0.20;;;7.50;99.90;;;;;;5067267;28;20177;-82
2022/01/06 10:35:07;;;;;;;1.23;1.23;;;7.60;99.90;;;;;;5064988;28;21068;-82
2022/01/06 10:37:41;;;;;;;0.47;0.47;;;7.40;99.90;;;;;;5064980;28;20194;-82
2022/01/06 10:40:17;;;;;;;0.20;0.20;;;7.30;99.90;;;;;;5068041;28;20191;-82
2022/01/06 10:42:48;;;;;;;2.27;0.10;;;7.20;99.90;;;;;;5064856;28;20176;-82
2022/01/06 10:45:19;;;;;;;0.20;0.20;;;7.00;99.90;;;;;;5064124;28;20216;-82
2022/01/06 10:47:48;;;;;;;1.70;1.60;;;7.00;99.90;;;;;;5062533;28;20188;-82
2022/01/06 10:50:28;;;;;;;0.10;0.10;;;6.80;99.90;;;;;;5064020;28;20196;-82
2022/01/06 10:53:03;;;;;;;0.20;0.20;;;6.80;99.90;;;;;;5065990;28;20196;-82
2022/01/06 10:55:30;;;;;;;0.20;0.20;;;6.60;99.90;;;;;;5064435;28;20546;-81
2022/01/06 10:57:59;;;;;;;0.60;0.60;;;6.50;99.90;;;;;;5064970;28;20728;-82
2022/01/06 11:00:34;;;;;;;1.23;1.17;;;6.50;99.90;;;;;;5064144;28;20584;-82
2022/01/06 11:03:06;;;;;;;0.50;0.20;;;6.60;99.90;;;;;;5061334;28;20191;-82
2022/01/06 11:05:34;;;;;;;0.90;0.57;;;6.50;99.90;;;;;;5062187;28;20187;-82
2022/01/06 11:08:00;;;;;;;0.60;0.37;;;6.40;99.90;;;;;;5063219;28;20292;-82
2022/01/06 11:10:26;;;;;;;0.10;0.10;;;6.70;99.90;;;;;;5063433;28;20536;-82
2022/01/06 11:12:52;;;;;;;0.50;0.50;;;6.60;99.90;;;;;;5057776;28;20254;-82
2022/01/06 11:15:18;;;;;;;0.33;0.33;;;6.70;99.90;;;;;;5062080;28;20213;-82
2022/01/06 11:17:48;;;;;;;0.30;0.30;;;6.90;99.90;;;;;;5061259;28;20554;-82
2022/01/06 11:20:24;;;;;;;0.10;0.10;;;7.10;99.90;;;;;;5062843;28;20181;-82
2022/01/06 11:22:53;;;;;;;0.30;0.30;;;7.30;99.90;;;;;;5066012;28;20181;-82
2022/01/06 11:25:30;;;;;;;0.00;0.00;;;7.40;99.90;;;;;;5064228;28;20201;-82
2022/01/06 11:28:08;;;;;;;0.10;0.10;;;7.50;99.90;;;;;;5060535;28;20181;-82
2022/01/06 11:30:43;;;;;;;0.10;0.10;;;7.70;99.90;;;;;;5061810;28;20259;-82
2022/01/06 11:33:09;;;;;;;0.13;0.13;;;7.80;99.90;;;;;;5064886;28;20215;-81
2022/01/06 11:35:57;;;;;;;6.03;0.40;;;7.90;99.90;;;;;;5060863;28;20205;-81
2022/01/06 11:38:26;;;;;;;0.93;0.60;;;8.10;99.90;;;;;;5061790;28;20238;-82
2022/01/06 11:41:05;;;;;;;0.10;0.10;;;8.30;99.90;;;;;;5055182;28;20177;-82
2022/01/06 11:43:36;;;;;;;2.20;0.33;;;8.60;99.90;;;;;;5063175;28;20692;-82
2022/01/06 11:46:02;;;;;;;0.10;0.10;;;8.90;99.90;;;;;;5056120;28;20597;-81
2022/01/06 11:48:27;;;;;;;0.10;0.10;;;8.80;99.90;;;;;;5063443;28;20185;-82
2022/01/06 11:50:53;;;;;;;0.00;0.00;;;9.00;99.90;;;;;;5063144;28;20187;-82
2022/01/06 11:53:33;;;;;;;2.03;0.20;;;8.90;99.90;;;;;;5063050;28;20581;-82
2022/01/06 11:56:11;;;;;;;0.30;0.30;;;8.60;99.90;;;;;;5062575;28;20254;-82
2022/01/06 11:58:36;;;;;;;0.10;0.10;;;8.10;99.90;;;;;;5058479;28;20207;-82
2022/01/06 12:01:05;;;;;;;0.10;0.10;;;7.80;99.90;;;;;;5062721;28;20177;-82
2022/01/06 12:03:40;;;;;;;0.40;0.40;;;7.50;99.90;;;;;;5063187;28;20215;-81
2022/01/06 12:06:06;;;;;;;0.27;0.27;;;7.20;99.90;;;;;;5063882;28;20672;-82
2022/01/06 12:08:42;;;;;;;0.20;0.20;;;7.10;99.90;;;;;;5068291;28;20182;-82
2022/01/06 12:11:25;;;;;;;0.17;0.17;;;7.00;99.90;;;;;;5062986;28;20537;-82
2022/01/06 12:13:53;;;;;;;0.10;0.10;;;7.00;99.90;;;;;;5063401;28;20683;-82
2022/01/06 12:16:36;;;;;;;0.37;0.37;;;6.80;99.90;;;;;;5061937;28;20201;-82
2022/01/06 12:19:24;;;;;;;0.10;0.10;;;6.80;99.90;;;;;;5063031;28;20182;-82
2022/01/06 12:21:50;;;;;;;0.10;0.10;;;6.80;99.90;;;;;;5063476;28;20182;-82
2022/01/06 12:24:17;;;;;;;0.60;0.60;;;6.80;99.90;;;;;;5064469;28;20207;-81
2022/01/06 12:26:44;;;;;;;0.10;0.10;;;7.20;99.90;;;;;;5062547;28;20177;-82
2022/01/06 12:29:19;;;;;;;0.10;0.10;;;6.90;99.90;;;;;;5062461;28;21196;-82
2022/01/06 12:31:45;;;;;;;1.10;0.53;;;6.80;99.90;;;;;;5064137;28;20176;-82
2022/01/06 12:34:12;;;;;;;0.83;0.83;;;7.00;99.90;;;;;;5059532;28;20296;-82
2022/01/06 12:36:42;;;;;;;0.50;0.50;;;7.50;99.90;;;;;;5049734;28;20813;-82
2022/01/06 12:39:18;;;;;;;2.00;0.23;;;7.60;99.90;;;;;;5049307;28;20174;-82
2022/01/06 12:41:45;;;;;;;0.23;0.10;;;7.90;99.90;;;;;;5044455;28;20219;-82
2022/01/06 12:44:16;;;;;;;0.63;0.63;;;8.00;99.90;;;;;;5036402;28;21265;-81
2022/01/06 12:46:42;;;;;;;0.00;0.00;;;8.00;99.90;;;;;;5042638;28;20278;-81
2022/01/06 12:49:09;;;;;;;0.20;0.20;;;7.90;99.90;;;;;;5056021;28;20183;-82
2022/01/06 12:51:38;;;;;;;0.10;0.10;;;7.70;99.90;;;;;;5061766;28;20194;-82
2022/01/06 12:54:09;;;;;;;0.10;0.10;;;7.60;99.90;;;;;;5060565;28;20205;-82
2022/01/06 12:56:36;;;;;;;0.10;0.10;;;7.50;99.90;;;;;;5065802;28;20192;-82
2022/01/06 12:59:11;;;;;;;0.00;0.00;;;7.60;99.90;;;;;;5066572;28;20276;-82
2022/01/06 13:01:38;;;;;;;0.30;0.30;;;7.60;99.90;;;;;;5064720;28;20835;-82
2022/01/06 13:04:06;;;;;;;0.10;0.10;;;7.50;99.90;;;;;;5064511;28;20226;-83